createdAt,value
2019-01-19T00:02:44.288Z,5.13
2019-01-19T00:05:55.226Z,5.20
2019-01-19T00:08:43.338Z,4.47
2019-01-19T00:12:03.389Z,5.37
2019-01-19T00:14:36.854Z,4.33
2019-01-19T00:17:33.171Z,4.47
2019-01-19T00:20:36.720Z,5.03
2019-01-19T00:23:51.937Z,4.40
2019-01-19T00:27:00.213Z,5.73
2019-01-19T00:29:45.099Z,5.03
2019-01-19T00:32:52.879Z,6.67
2019-01-19T00:35:50.448Z,5.77
2019-01-19T00:38:47.534Z,6.27
2019-01-19T00:42:16.296Z,6.63
2019-01-19T00:45:13.910Z,5.43
2019-01-19T00:48:10.396Z,5.00
2019-01-19T00:51:29.290Z,5.70
2019-01-19T00:54:10.670Z,5.20
2019-01-19T00:57:12.757Z,5.30
2019-01-19T00:59:46.185Z,5.00
2019-01-19T01:03:11.848Z,5.37
2019-01-19T01:06:05.941Z,4.77
2019-01-19T01:09:34.603Z,5.47
2019-01-19T01:12:41.092Z,4.90
2019-01-19T01:15:45.890Z,5.37
2019-01-19T01:18:39.452Z,5.73
2019-01-19T01:21:58.975Z,4.70
2019-01-19T01:25:19.030Z,4.80
2019-01-19T01:28:09.399Z,4.80
2019-01-19T01:30:48.787Z,4.83
2019-01-19T01:34:11.535Z,5.43
2019-01-19T01:37:09.050Z,4.77
2019-01-19T01:40:26.063Z,4.77
2019-01-19T01:43:42.555Z,3.43
2019-01-19T01:47:06.481Z,5.10
2019-01-19T01:50:10.600Z,4.50
2019-01-19T01:53:20.121Z,4.90
2019-01-19T01:55:53.310Z,4.07
2019-01-19T01:58:55.149Z,4.00
2019-01-19T02:02:05.478Z,3.60
2019-01-19T02:05:19.032Z,3.60
2019-01-19T02:08:13.000Z,3.60
2019-01-19T02:11:10.647Z,3.73
2019-01-19T02:13:52.785Z,3.50
2019-01-19T02:17:06.331Z,3.70
2019-01-19T02:20:22.962Z,2.90
2019-01-19T02:23:18.310Z,3.40
2019-01-19T02:26:18.212Z,2.33
2019-01-19T02:29:08.958Z,2.70
2019-01-19T02:32:12.269Z,2.87
2019-01-19T02:35:19.636Z,2.73
2019-01-19T02:38:36.420Z,3.17
2019-01-19T02:41:43.242Z,3.03
2019-01-19T02:44:45.474Z,2.80
2019-01-19T02:47:52.098Z,3.53
2019-01-19T02:50:42.862Z,2.60
2019-01-19T02:53:38.620Z,2.63
2019-01-19T02:56:42.807Z,2.63
2019-01-19T02:59:17.595Z,2.63
2019-01-19T03:02:14.505Z,2.90
2019-01-19T03:05:21.215Z,2.80
2019-01-19T03:08:34.562Z,2.60
2019-01-19T03:11:35.094Z,2.80
2019-01-19T03:14:23.487Z,1.87
2019-01-19T03:17:42.514Z,2.80
2019-01-19T03:20:58.916Z,2.90
2019-01-19T03:24:27.668Z,2.80
2019-01-19T03:27:50.242Z,2.60
2019-01-19T03:31:03.323Z,2.33
2019-01-19T03:34:01.443Z,3.67
2019-01-19T03:37:02.233Z,5.23
2019-01-19T03:40:01.507Z,5.43
2019-01-19T03:42:58.673Z,5.53
2019-01-19T03:45:54.099Z,5.30
2019-01-19T03:49:12.850Z,5.13
2019-01-19T03:52:14.636Z,5.47
2019-01-19T03:55:28.595Z,4.13
2019-01-19T03:58:28.993Z,4.43
2019-01-19T04:01:18.791Z,4.80
2019-01-19T04:04:18.762Z,4.97
2019-01-19T04:07:08.270Z,4.50
2019-01-19T04:10:00.749Z,4.90
2019-01-19T04:13:20.140Z,4.83
2019-01-19T04:16:08.143Z,5.30
2019-01-19T04:19:09.035Z,5.03
2019-01-19T04:22:01.400Z,4.90
2019-01-19T04:25:03.557Z,4.43
2019-01-19T04:27:33.249Z,4.90
2019-01-19T04:30:02.921Z,4.40
2019-01-19T04:32:32.588Z,5.63
2019-01-19T04:35:02.251Z,5.13
2019-01-19T04:37:31.959Z,5.33
2019-01-19T04:40:01.641Z,4.77
2019-01-19T04:42:31.712Z,4.53
2019-01-19T04:45:01.385Z,4.77
2019-01-19T04:47:31.103Z,4.50
2019-01-19T04:50:00.752Z,4.27
2019-01-19T04:52:30.531Z,4.83
2019-01-19T04:55:00.181Z,4.50
2019-01-19T04:57:29.859Z,4.27
2019-01-19T04:59:59.612Z,6.40
2019-01-19T05:02:29.363Z,7.90
2019-01-19T05:04:59.048Z,6.60
2019-01-19T05:07:28.683Z,6.60
2019-01-19T05:09:58.386Z,5.83
2019-01-19T05:12:27.992Z,6.97
2019-01-19T05:14:57.734Z,6.73
2019-01-19T05:17:27.460Z,6.80
2019-01-19T05:19:57.137Z,5.97
2019-01-19T05:22:26.863Z,6.40
2019-01-19T05:24:56.554Z,5.87
2019-01-19T05:27:26.236Z,6.47
2019-01-19T05:29:55.999Z,6.73
2019-01-19T05:32:26.307Z,8.50
2019-01-19T05:34:56.333Z,7.60
2019-01-19T05:37:26.053Z,8.27
2019-01-19T05:39:55.822Z,8.23
2019-01-19T05:42:25.497Z,8.13
2019-01-19T05:44:55.263Z,8.10
2019-01-19T05:47:24.917Z,7.63
2019-01-19T05:49:54.602Z,7.70
2019-01-19T05:52:24.385Z,7.43
2019-01-19T05:54:54.124Z,7.10
2019-01-19T05:57:23.782Z,7.73
2019-01-19T05:59:53.485Z,7.80
2019-01-19T06:02:24.816Z,7.37
2019-01-19T06:04:54.480Z,7.63
2019-01-19T06:07:24.230Z,7.73
2019-01-19T06:09:53.858Z,8.07
2019-01-19T06:12:23.651Z,7.30
2019-01-19T06:14:53.277Z,7.80
2019-01-19T06:17:22.987Z,8.60
2019-01-19T06:19:53.406Z,8.63
2019-01-19T06:22:23.408Z,7.93
2019-01-19T06:24:53.069Z,8.60
2019-01-19T06:27:22.767Z,8.47
2019-01-19T06:29:52.416Z,8.33
2019-01-19T06:32:22.132Z,8.00
2019-01-19T06:34:51.755Z,7.33
2019-01-19T06:37:21.579Z,8.47
2019-01-19T06:39:51.261Z,8.73
2019-01-19T06:42:20.945Z,8.43
2019-01-19T06:44:50.606Z,8.00
2019-01-19T06:47:20.361Z,6.13
2019-01-19T06:49:50.043Z,8.17
2019-01-19T06:52:19.781Z,10.23
2019-01-19T06:54:49.427Z,9.93
2019-01-19T06:57:19.143Z,10.97
2019-01-19T06:59:48.851Z,10.27
2019-01-19T07:02:18.559Z,8.73
2019-01-19T07:04:48.192Z,9.30
2019-01-19T07:07:17.952Z,9.53
2019-01-19T07:09:47.632Z,10.33
2019-01-19T07:12:17.472Z,9.87
2019-01-19T07:14:47.185Z,9.23
2019-01-19T07:17:16.985Z,10.50
2019-01-19T07:19:46.628Z,8.87
2019-01-19T07:22:16.312Z,9.50
2019-01-19T07:24:46.012Z,9.20
2019-01-19T07:27:15.875Z,7.87
2019-01-19T07:29:45.560Z,9.47
2019-01-19T07:32:15.243Z,8.27
2019-01-19T07:34:44.884Z,8.90
2019-01-19T07:37:14.592Z,9.47
2019-01-19T07:39:44.266Z,9.10
2019-01-19T07:42:13.950Z,8.97
2019-01-19T07:44:43.672Z,9.00
2019-01-19T07:47:13.795Z,9.60
2019-01-19T07:49:46.751Z,8.87
2019-01-19T07:52:16.397Z,8.53
2019-01-19T07:54:46.947Z,10.00
2019-01-19T07:57:16.664Z,10.93
2019-01-19T07:59:46.395Z,12.40
2019-01-19T08:02:16.413Z,10.20
2019-01-19T08:04:46.145Z,10.60
2019-01-19T08:07:17.400Z,11.30
2019-01-19T08:09:47.636Z,11.23
2019-01-19T08:12:17.370Z,11.37
2019-01-19T08:14:47.130Z,11.37
2019-01-19T08:17:16.866Z,10.47
2019-01-19T08:19:46.542Z,11.30
2019-01-19T08:22:16.258Z,10.77
2019-01-19T08:24:45.976Z,10.03
2019-01-19T08:27:15.634Z,9.97
2019-01-19T08:29:45.341Z,11.10
2019-01-19T08:32:15.050Z,12.80
2019-01-19T08:34:44.839Z,11.03
2019-01-19T08:37:14.583Z,11.77
2019-01-19T08:39:44.790Z,12.40
2019-01-19T08:42:14.454Z,12.13
2019-01-19T08:44:44.264Z,11.90
2019-01-19T08:47:14.046Z,12.63
2019-01-19T08:49:43.786Z,12.17
2019-01-19T08:52:13.549Z,12.63
2019-01-19T08:54:43.372Z,12.57
2019-01-19T08:57:13.012Z,12.47
2019-01-19T08:59:42.703Z,10.67
2019-01-19T09:02:12.466Z,10.67
2019-01-19T09:04:42.197Z,11.57
2019-01-19T09:07:11.959Z,10.67
2019-01-19T09:09:41.652Z,9.50
2019-01-19T09:12:11.370Z,8.90
2019-01-19T09:14:40.974Z,8.93
2019-01-19T09:17:10.716Z,8.53
2019-01-19T09:19:40.396Z,8.60
2019-01-19T09:22:10.057Z,9.87
2019-01-19T09:24:39.680Z,8.63
2019-01-19T09:27:09.394Z,8.97
2019-01-19T09:29:38.997Z,8.07
2019-01-19T09:32:08.669Z,8.17
2019-01-19T09:34:38.401Z,8.13
2019-01-19T09:37:08.074Z,7.93
2019-01-19T09:39:37.732Z,8.10
2019-01-19T09:42:07.399Z,7.97
2019-01-19T09:44:37.175Z,8.60
2019-01-19T09:47:06.840Z,7.53
2019-01-19T09:49:36.466Z,7.67
2019-01-19T09:52:06.235Z,7.87
2019-01-19T09:54:35.859Z,7.80
2019-01-19T09:57:05.544Z,7.67
2019-01-19T09:59:35.238Z,7.73
2019-01-19T10:02:05.014Z,7.20
2019-01-19T10:04:34.721Z,7.97
2019-01-19T10:07:04.490Z,8.43
2019-01-19T10:09:34.097Z,8.80
2019-01-19T10:12:03.751Z,7.83
2019-01-19T10:14:33.432Z,7.87
2019-01-19T10:17:03.019Z,7.93
2019-01-19T10:19:32.743Z,7.50
2019-01-19T10:22:02.377Z,8.00
2019-01-19T10:24:33.074Z,7.43
2019-01-19T10:27:02.769Z,8.60
2019-01-19T10:29:32.491Z,9.20
2019-01-19T10:32:02.293Z,8.13
2019-01-19T10:34:32.083Z,8.33
2019-01-19T10:37:01.873Z,8.13
2019-01-19T10:39:31.659Z,8.13
2019-01-19T10:42:07.954Z,7.93
2019-01-19T10:44:39.130Z,8.37
2019-01-19T10:47:12.435Z,8.67
2019-01-19T10:49:43.245Z,8.53
2019-01-19T10:52:13.678Z,8.43
2019-01-19T10:54:44.199Z,9.93
2019-01-19T10:57:14.348Z,9.03
2019-01-19T10:59:45.135Z,8.83
2019-01-19T11:02:15.438Z,9.23
2019-01-19T11:04:46.659Z,8.83
2019-01-19T11:07:17.766Z,9.73
2019-01-19T11:09:48.343Z,9.87
2019-01-19T11:12:19.035Z,9.17
2019-01-19T11:14:50.505Z,9.30
2019-01-19T11:17:22.544Z,8.80
2019-01-19T11:19:53.126Z,10.50
2019-01-19T11:22:24.765Z,9.90
2019-01-19T11:24:54.952Z,9.63
2019-01-19T11:27:25.321Z,9.60
2019-01-19T11:29:55.101Z,9.97
2019-01-19T11:32:24.896Z,10.13
2019-01-19T11:34:54.540Z,10.03
2019-01-19T11:37:24.280Z,9.93
2019-01-19T11:39:53.987Z,10.67
2019-01-19T11:42:23.808Z,10.00
2019-01-19T11:44:53.560Z,9.97
2019-01-19T11:47:23.270Z,11.07
2019-01-19T11:49:53.149Z,10.57
2019-01-19T11:52:52.101Z,11.70
2019-01-19T11:55:22.714Z,12.07
2019-01-19T11:57:57.623Z,12.77
2019-01-19T12:00:29.482Z,12.23
2019-01-19T12:02:59.191Z,12.93
2019-01-19T12:05:30.381Z,12.37
2019-01-19T12:08:00.214Z,12.83
2019-01-19T12:10:38.607Z,13.13
2019-01-19T12:13:09.724Z,13.23
2019-01-19T12:15:39.578Z,11.57
2019-01-19T12:18:14.520Z,11.60
2019-01-19T12:20:50.072Z,11.17
2019-01-19T12:23:31.612Z,12.57
2019-01-19T12:26:15.751Z,12.17
2019-01-19T12:28:45.521Z,11.60
2019-01-19T12:31:16.817Z,13.80
2019-01-19T12:33:55.780Z,13.63
2019-01-19T12:36:25.814Z,13.40
2019-01-19T12:38:56.441Z,12.57
2019-01-19T12:41:26.223Z,12.83
2019-01-19T12:43:56.302Z,12.07
2019-01-19T12:46:27.596Z,12.30
2019-01-19T12:48:58.574Z,11.90
2019-01-19T12:51:29.422Z,12.70
2019-01-19T12:56:54.780Z,13.43
2019-01-19T12:59:25.725Z,14.33
2019-01-19T13:01:58.677Z,14.00
2019-01-19T13:04:34.025Z,12.93
2019-01-19T13:07:17.394Z,11.90
2019-01-19T13:10:06.106Z,12.07
2019-01-19T13:12:43.259Z,11.67
2019-01-19T13:15:53.950Z,12.43
2019-01-19T13:18:49.467Z,11.07
2019-01-19T13:22:18.775Z,11.97
2019-01-19T13:25:13.934Z,12.97
2019-01-19T13:28:33.345Z,12.77
2019-01-19T13:31:39.619Z,13.07
2019-01-19T13:34:43.123Z,13.87
2019-01-19T13:37:52.517Z,13.13
2019-01-19T13:40:55.173Z,11.90
2019-01-19T13:44:04.330Z,12.10
2019-01-19T13:47:01.230Z,12.97
2019-01-19T13:50:16.029Z,12.37
2019-01-19T13:53:33.798Z,11.80
2019-01-19T13:57:03.990Z,12.83
2019-01-19T14:00:02.790Z,13.43
2019-01-19T14:02:46.789Z,12.87
2019-01-19T14:05:55.287Z,13.17
2019-01-19T14:09:09.952Z,11.80
2019-01-19T14:12:06.258Z,12.20
2019-01-19T14:15:20.100Z,11.83
2019-01-19T14:18:43.279Z,11.50
2019-01-19T14:21:43.202Z,12.67
2019-01-19T14:24:44.533Z,61.43
2019-01-19T14:28:04.266Z,17.87
2019-01-19T14:30:57.724Z,16.13
2019-01-19T14:33:58.154Z,14.00
2019-01-19T14:37:21.509Z,12.90
2019-01-19T14:40:32.648Z,13.77
2019-01-19T14:43:55.861Z,13.00
2019-01-19T14:47:05.239Z,14.60
2019-01-19T14:50:20.842Z,14.13
2019-01-19T14:53:37.394Z,18.73
2019-01-19T14:56:46.124Z,17.97
2019-01-19T14:59:59.945Z,13.77
2019-01-19T15:03:07.362Z,11.90
2019-01-19T15:06:04.324Z,13.40
2019-01-19T15:08:55.319Z,12.33
2019-01-19T15:12:07.557Z,12.97
2019-01-19T15:15:16.608Z,12.13
2019-01-19T15:18:07.791Z,12.23
2019-01-19T15:21:08.765Z,12.63
2019-01-19T15:24:00.648Z,12.50
2019-01-19T15:27:18.987Z,11.83
2019-01-19T15:30:19.662Z,18.50
2019-01-19T15:33:42.213Z,23.73
2019-01-19T15:36:47.245Z,20.67
2019-01-19T15:39:53.627Z,19.90
2019-01-19T15:43:09.278Z,15.63
2019-01-19T15:46:30.384Z,11.77
2019-01-19T15:49:38.071Z,13.83
2019-01-19T15:52:39.918Z,15.67
2019-01-19T15:55:55.656Z,15.83
2019-01-19T15:58:45.583Z,15.93
2019-01-19T16:01:44.670Z,26.40
2019-01-19T16:04:39.977Z,24.50
2019-01-19T16:07:39.283Z,25.27
2019-01-19T16:10:53.286Z,22.67
2019-01-19T16:13:50.803Z,21.97
2019-01-19T16:16:53.233Z,18.37
2019-01-19T16:20:09.355Z,19.80
2019-01-19T16:23:17.424Z,14.77
2019-01-19T16:26:32.174Z,15.23
2019-01-19T16:29:52.340Z,14.90
2019-01-19T16:33:11.371Z,15.57
2019-01-19T16:36:32.418Z,14.60
2019-01-19T16:39:47.053Z,14.93
2019-01-19T16:42:43.211Z,15.40
2019-01-19T16:45:46.453Z,13.90
2019-01-19T16:48:46.768Z,14.77
2019-01-19T16:52:03.850Z,15.40
2019-01-19T16:55:14.932Z,17.40
2019-01-19T16:58:29.522Z,14.43
2019-01-19T17:01:26.331Z,16.03
2019-01-19T17:04:34.689Z,16.57
2019-01-19T17:07:56.498Z,15.73
2019-01-19T17:11:22.203Z,15.80
2019-01-19T17:14:33.433Z,17.43
2019-01-19T17:17:28.899Z,17.27
2019-01-19T17:20:39.932Z,16.60
2019-01-19T17:23:51.013Z,16.07
2019-01-19T17:26:56.691Z,16.20
2019-01-19T17:30:13.621Z,14.70
2019-01-19T17:33:18.371Z,14.43
2019-01-19T17:36:36.740Z,14.83
2019-01-19T17:40:04.148Z,14.80
2019-01-19T17:43:18.018Z,15.33
2019-01-19T17:46:50.117Z,15.47
2019-01-19T17:49:33.115Z,14.03
2019-01-19T17:52:30.489Z,15.17
2019-01-19T17:55:46.020Z,15.33
2019-01-19T17:58:52.564Z,14.83
2019-01-19T18:02:03.767Z,17.20
2019-01-19T18:05:20.319Z,14.83
2019-01-19T18:08:04.611Z,14.70
2019-01-19T18:11:16.239Z,15.80
2019-01-19T18:14:10.107Z,17.57
2019-01-19T18:17:25.653Z,16.20
2019-01-19T18:20:17.073Z,17.53
2019-01-19T18:23:30.731Z,16.30
2019-01-19T18:26:25.521Z,16.40
2019-01-19T18:29:32.869Z,16.83
2019-01-19T18:32:10.570Z,15.97
2019-01-19T18:35:19.820Z,17.50
2019-01-19T18:38:29.109Z,15.47
2019-01-19T18:41:46.616Z,15.97
2019-01-19T18:45:02.151Z,15.67
2019-01-19T18:47:46.912Z,17.13
2019-01-19T18:50:40.049Z,17.47
2019-01-19T18:53:59.595Z,15.70
2019-01-19T18:57:25.301Z,16.37
2019-01-19T19:00:18.602Z,15.03
2019-01-19T19:03:14.857Z,16.97
2019-01-19T19:06:51.138Z,16.67
2019-01-19T19:10:01.918Z,16.07
2019-01-19T19:13:10.713Z,16.83
2019-01-19T19:16:45.851Z,18.00
2019-01-19T19:19:52.842Z,16.80
2019-01-19T19:22:51.766Z,16.87
2019-01-19T19:26:29.888Z,16.43
2019-01-19T19:29:34.042Z,16.47
2019-01-19T19:32:44.519Z,16.63
2019-01-19T19:35:43.177Z,16.40
2019-01-19T19:39:10.858Z,16.13
2019-01-19T19:42:23.679Z,17.13
2019-01-19T19:45:40.405Z,17.30
2019-01-19T19:48:29.176Z,18.03
2019-01-19T19:51:34.765Z,17.37
2019-01-19T19:54:04.462Z,19.03
2019-01-19T19:56:35.222Z,19.83
2019-01-19T19:59:06.420Z,19.83
2019-01-19T20:01:36.065Z,18.80
2019-01-19T20:04:05.874Z,19.90
2019-01-19T20:06:35.559Z,19.73
2019-01-19T20:09:08.919Z,19.83
2019-01-19T20:11:38.564Z,21.07
2019-01-19T20:14:08.318Z,18.63
2019-01-19T20:16:40.401Z,18.83
2019-01-19T20:19:11.702Z,18.93
2019-01-19T20:21:41.835Z,19.90
2019-01-19T20:24:11.783Z,19.67
2019-01-19T20:26:41.842Z,20.60
2019-01-19T20:29:11.848Z,21.13
2019-01-19T20:31:45.483Z,20.97
2019-01-19T20:34:15.792Z,18.73
2019-01-19T20:36:45.885Z,18.90
2019-01-19T20:39:17.405Z,19.33
2019-01-19T20:41:47.093Z,18.70
2019-01-19T20:44:19.028Z,19.30
2019-01-19T20:46:50.337Z,19.53
2019-01-19T20:49:22.375Z,18.30
2019-01-19T20:51:52.372Z,18.03
2019-01-19T20:54:22.029Z,18.67
2019-01-19T20:56:54.362Z,18.50
2019-01-19T20:59:24.076Z,18.60
2019-01-19T21:01:54.271Z,19.53
2019-01-19T21:04:24.336Z,18.67
2019-01-19T21:06:54.078Z,19.53
2019-01-19T21:09:24.195Z,18.60
2019-01-19T21:11:53.836Z,19.33
2019-01-19T21:14:25.326Z,17.83
2019-01-19T21:16:55.094Z,18.00
2019-01-19T21:19:25.044Z,18.87
2019-01-19T21:21:55.115Z,17.80
2019-01-19T21:24:25.157Z,17.33
2019-01-19T21:26:55.412Z,17.77
2019-01-19T21:29:25.178Z,17.77
2019-01-19T21:31:54.890Z,17.00
2019-01-19T21:34:24.914Z,17.73
2019-01-19T21:36:58.212Z,15.90
2019-01-19T21:39:28.362Z,16.83
2019-01-19T21:41:58.084Z,17.23
2019-01-19T21:44:27.854Z,16.47
2019-01-19T21:46:58.904Z,17.03
2019-01-19T21:49:28.610Z,16.50
2019-01-19T21:51:58.315Z,16.27
2019-01-19T21:54:28.485Z,17.63
2019-01-19T21:56:58.244Z,17.60
2019-01-19T21:59:28.458Z,16.40
2019-01-19T22:01:58.187Z,17.53
2019-01-19T22:04:27.822Z,15.70
2019-01-19T22:06:57.586Z,17.60
2019-01-19T22:09:27.272Z,16.63
2019-01-19T22:11:57.584Z,17.10
2019-01-19T22:14:27.259Z,16.60
2019-01-19T22:16:56.970Z,16.87
2019-01-19T22:19:26.676Z,17.27
2019-01-19T22:21:56.377Z,16.13
2019-01-19T22:24:26.040Z,16.80
2019-01-19T22:26:56.170Z,17.30
2019-01-19T22:29:25.851Z,15.93
2019-01-19T22:31:55.531Z,16.33
2019-01-19T22:34:25.243Z,16.53
2019-01-19T22:36:55.006Z,17.47
2019-01-19T22:39:24.690Z,16.70
2019-01-19T22:41:54.353Z,16.43
2019-01-19T22:44:24.084Z,14.10
2019-01-19T22:46:53.724Z,16.07
2019-01-19T22:49:23.387Z,15.17
2019-01-19T22:51:53.160Z,15.87
2019-01-19T22:54:22.892Z,14.60
2019-01-19T22:56:52.579Z,15.87
2019-01-19T22:59:22.368Z,15.83
2019-01-19T23:01:58.296Z,14.67
2019-01-19T23:04:28.137Z,15.33
2019-01-19T23:06:57.916Z,17.03
2019-01-19T23:09:27.583Z,16.37
2019-01-19T23:11:57.333Z,15.13
2019-01-19T23:14:27.442Z,15.00
2019-01-19T23:16:57.300Z,16.13
2019-01-19T23:19:26.977Z,15.13
2019-01-19T23:21:56.692Z,16.23
2019-01-19T23:24:26.373Z,15.10
2019-01-19T23:27:01.773Z,15.40
2019-01-19T23:29:31.440Z,15.00
2019-01-19T23:32:01.158Z,15.27
2019-01-19T23:34:30.914Z,14.03
2019-01-19T23:37:00.620Z,14.20
2019-01-19T23:39:30.322Z,15.77
2019-01-19T23:41:59.997Z,14.63
2019-01-19T23:44:29.765Z,15.20
2019-01-19T23:46:59.445Z,15.00
2019-01-19T23:49:29.183Z,13.73
2019-01-19T23:51:58.872Z,13.50
2019-01-19T23:54:28.617Z,15.00
2019-01-19T23:56:58.352Z,14.53
2019-01-19T23:59:28.080Z,14.67
